Time,TemperatureF,DewpointF,PressureIn,WindDirection,WindDirectionDegrees,WindSpeedMPH,WindSpeedGustMPH,Humidity,HourlyPrecipIn,Conditions,Clouds,dailyrainin,SolarRadiationWatts/m^2,SoftwareType,DateUTC
2013-02-09 00:00:00,33.2,28.3,30.21,North,5,6.0,7.0,82,0.00,,,0.00,0,HR-IXPWINDi_r2_v1.2.,2013-02-09 05:00:00,
2013-02-09 00:05:00,33.2,28.3,30.21,SW,233,0.0,9.0,82,0.00,,,0.00,0,HR-IXPWINDi_r2_v1.2.,2013-02-09 05:05:00,
2013-02-09 00:10:00,33.0,28.1,30.21,NW,311,4.0,9.0,82,0.00,,,0.00,0,HR-IXPWINDi_r2_v1.2.,2013-02-09 05:10:00,
2013-02-09 00:15:00,32.9,27.7,30.20,North,355,4.0,7.0,81,0.00,,,0.00,0,HR-IXPWINDi_r2_v1.2.,2013-02-09 05:15:00,
2013-02-09 00:20:00,32.7,27.8,30.21,SSW,201,2.0,7.0,82,0.00,,,0.00,0,HR-IXPWINDi_r2_v1.2.,2013-02-09 05:20:00,
2013-02-09 00:25:00,32.6,27.7,30.21,SW,215,2.0,6.0,82,0.00,,,0.00,0,HR-IXPWINDi_r2_v1.2.,2013-02-09 05:25:00,
2013-02-09 00:30:00,32.6,27.7,30.21,SSW,205,7.0,9.0,82,0.00,,,0.00,0,HR-IXPWINDi_r2_v1.2.,2013-02-09 05:30:00,
2013-02-09 00:35:00,32.5,27.6,30.21,NW,311,5.0,9.0,82,0.00,,,0.00,0,HR-IXPWINDi_r2_v1.2.,2013-02-09 05:35:00,
2013-02-09 00:41:00,32.3,27.4,30.21,NW,323,3.0,8.0,82,0.00,,,0.00,0,HR-IXPWINDi_r2_v1.2.,2013-02-09 05:41:00,
2013-02-09 00:46:00,32.1,27.2,30.21,NNW,340,8.0,8.0,82,0.00,,,0.00,0,HR-IXPWINDi_r2_v1.2.,2013-02-09 05:46:00,
2013-02-09 00:51:00,32.0,27.1,30.21,SW,236,0.0,8.0,82,0.00,,,0.00,0,HR-IXPWINDi_r2_v1.2.,2013-02-09 05:51:00,
2013-02-09 00:56:00,32.0,27.1,30.20,SW,229,1.0,9.0,82,0.00,,,0.00,0,HR-IXPWINDi_r2_v1.2.,2013-02-09 05:56:00,
2013-02-09 01:01:00,31.9,27.3,30.20,SSW,202,3.0,9.0,83,0.00,,,0.00,0,HR-IXPWINDi_r2_v1.2.,2013-02-09 06:01:00,
2013-02-09 01:07:00,31.7,27.1,30.20,SW,215,0.0,6.0,83,0.00,,,0.00,0,HR-IXPWINDi_r2_v1.2.,2013-02-09 06:07:00,
2013-02-09 01:12:00,31.4,26.8,30.20,SW,215,0.0,5.0,83,0.00,,,0.00,0,HR-IXPWINDi_r2_v1.2.,2013-02-09 06:12:00,
2013-02-09 01:17:00,31.2,26.6,30.20,SW,215,0.0,2.0,83,0.00,,,0.00,0,HR-IXPWINDi_r2_v1.2.,2013-02-09 06:17:00,
2013-02-09 01:22:00,31.0,26.7,30.20,SW,215,0.0,2.0,84,0.00,,,0.00,0,HR-IXPWINDi_r2_v1.2.,2013-02-09 06:22:00,
2013-02-09 01:28:00,31.1,26.8,30.20,SW,216,0.0,3.0,84,0.00,,,0.00,0,HR-IXPWINDi_r2_v1.2.,2013-02-09 06:28:00,
2013-02-09 01:33:00,31.0,26.7,30.21,West,265,0.0,4.0,84,0.00,,,0.00,0,HR-IXPWINDi_r2_v1.2.,2013-02-09 06:33:00,
2013-02-09 01:38:00,30.7,26.4,30.20,West,265,2.0,4.0,84,0.00,,,0.00,0,HR-IXPWINDi_r2_v1.2.,2013-02-09 06:38:00,
2013-02-09 01:43:00,30.6,26.3,30.20,WNW,298,0.0,4.0,84,0.00,,,0.00,0,HR-IXPWINDi_r2_v1.2.,2013-02-09 06:43:00,
2013-02-09 01:48:00,30.5,26.5,30.21,WNW,298,3.0,4.0,85,0.00,,,0.00,0,HR-IXPWINDi_r2_v1.2.,2013-02-09 06:48:00,
2013-02-09 01:54:00,30.4,26.4,30.21,WSW,253,0.0,4.0,85,0.00,,,0.00,0,HR-IXPWINDi_r2_v1.2.,2013-02-09 06:54:00,
2013-02-09 01:59:00,30.5,26.5,30.22,SW,225,2.0,4.0,85,0.00,,,0.00,0,HR-IXPWINDi_r2_v1.2.,2013-02-09 06:59:00,
2013-02-09 02:04:00,30.3,26.3,30.22,SW,230,0.0,4.0,85,0.00,,,0.00,0,HR-IXPWINDi_r2_v1.2.,2013-02-09 07:04:00,
2013-02-09 02:09:00,30.3,26.3,30.22,WSW,237,0.0,3.0,85,0.00,,,0.00,0,HR-IXPWINDi_r2_v1.2.,2013-02-09 07:09:00,
2013-02-09 02:15:00,30.3,26.0,30.22,WSW,237,0.0,3.0,84,0.00,,,0.00,0,HR-IXPWINDi_r2_v1.2.,2013-02-09 07:15:00,
2013-02-09 02:20:00,30.3,26.0,30.23,WSW,237,0.0,2.0,84,0.00,,,0.00,0,HR-IXPWINDi_r2_v1.2.,2013-02-09 07:20:00,
2013-02-09 02:25:00,30.2,25.9,30.23,WSW,237,0.0,2.0,84,0.00,,,0.00,0,HR-IXPWINDi_r2_v1.2.,2013-02-09 07:25:00,
2013-02-09 02:30:00,30.2,25.9,30.23,NW,323,0.0,4.0,84,0.00,,,0.00,0,HR-IXPWINDi_r2_v1.2.,2013-02-09 07:30:00,
2013-02-09 02:36:00,30.3,26.0,30.23,WNW,289,3.0,7.0,84,0.00,,,0.00,0,HR-IXPWINDi_r2_v1.2.,2013-02-09 07:36:00,
2013-02-09 02:41:00,30.3,25.7,30.24,WNW,289,0.0,7.0,83,0.00,,,0.00,0,HR-IXPWINDi_r2_v1.2.,2013-02-09 07:41:00,
2013-02-09 02:46:00,30.2,25.7,30.24,WNW,289,0.0,6.0,83,0.00,,,0.00,0,HR-IXPWINDi_r2_v1.2.,2013-02-09 07:46:00,
2013-02-09 02:51:00,30.1,25.8,30.24,WNW,289,2.0,2.0,84,0.00,,,0.00,0,HR-IXPWINDi_r2_v1.2.,2013-02-09 07:51:00,
2013-02-09 02:56:00,29.9,25.6,30.25,WNW,289,0.0,2.0,84,0.00,,,0.00,0,HR-IXPWINDi_r2_v1.2.,2013-02-09 07:56:00,
2013-02-09 03:02:00,29.9,25.6,30.25,WNW,289,0.0,2.0,84,0.00,,,0.00,0,HR-IXPWINDi_r2_v1.2.,2013-02-09 08:02:00,
2013-02-09 03:07:00,29.9,25.6,30.25,West,261,0.0,5.0,84,0.00,,,0.00,0,HR-IXPWINDi_r2_v1.2.,2013-02-09 08:07:00,
2013-02-09 03:12:00,29.8,25.5,30.26,West,261,0.0,5.0,84,0.00,,,0.00,0,HR-IXPWINDi_r2_v1.2.,2013-02-09 08:12:00,
2013-02-09 03:17:00,29.6,25.4,30.26,WNW,298,0.0,5.0,84,0.00,,,0.00,0,HR-IXPWINDi_r2_v1.2.,2013-02-09 08:17:00,
2013-02-09 03:22:00,29.8,25.5,30.26,North,355,3.0,5.0,84,0.00,,,0.00,0,HR-IXPWINDi_r2_v1.2.,2013-02-09 08:22:00,
2013-02-09 03:27:00,29.7,25.4,30.26,NW,325,0.0,3.0,84,0.00,,,0.00,0,HR-IXPWINDi_r2_v1.2.,2013-02-09 08:27:00,
2013-02-09 03:32:00,29.8,25.5,30.26,NNW,342,2.0,3.0,84,0.00,,,0.00,0,HR-IXPWINDi_r2_v1.2.,2013-02-09 08:32:00,
2013-02-09 03:37:00,29.9,25.6,30.26,NNW,342,2.0,3.0,84,0.00,,,0.00,0,HR-IXPWINDi_r2_v1.2.,2013-02-09 08:37:00,
2013-02-09 03:43:00,29.8,25.3,30.26,NNW,342,0.0,3.0,83,0.00,,,0.00,0,HR-IXPWINDi_r2_v1.2.,2013-02-09 08:43:00,
2013-02-09 03:48:00,29.7,25.4,30.26,NNW,340,0.0,5.0,84,0.00,,,0.00,0,HR-IXPWINDi_r2_v1.2.,2013-02-09 08:48:00,
2013-02-09 03:53:00,29.7,25.4,30.26,NW,317,0.0,5.0,84,0.00,,,0.00,0,HR-IXPWINDi_r2_v1.2.,2013-02-09 08:53:00,
2013-02-09 03:59:00,29.6,25.4,30.25,NNW,340,2.0,4.0,84,0.00,,,0.00,0,HR-IXPWINDi_r2_v1.2.,2013-02-09 08:59:00,
2013-02-09 04:04:00,29.5,25.3,30.25,NW,325,3.0,6.0,84,0.00,,,0.00,0,HR-IXPWINDi_r2_v1.2.,2013-02-09 09:04:00,
2013-02-09 04:09:00,29.6,25.6,30.25,NW,324,2.0,7.0,85,0.00,,,0.00,0,HR-IXPWINDi_r2_v1.2.,2013-02-09 09:09:00,
2013-02-09 04:14:00,29.7,25.4,30.25,NW,323,3.0,9.0,84,0.00,,,0.00,0,HR-IXPWINDi_r2_v1.2.,2013-02-09 09:14:00,
2013-02-09 04:19:00,29.8,25.5,30.26,NW,322,1.0,9.0,84,0.00,,,0.00,0,HR-IXPWINDi_r2_v1.2.,2013-02-09 09:19:00,
2013-02-09 04:25:00,29.7,25.4,30.26,NNW,348,5.0,6.0,84,0.00,,,0.00,0,HR-IXPWINDi_r2_v1.2.,2013-02-09 09:25:00,
2013-02-09 04:30:00,29.7,25.4,30.26,NNW,331,0.0,6.0,84,0.00,,,0.00,0,HR-IXPWINDi_r2_v1.2.,2013-02-09 09:30:00,
2013-02-09 04:35:00,29.5,25.5,30.27,West,270,3.0,7.0,85,0.00,,,0.00,0,HR-IXPWINDi_r2_v1.2.,2013-02-09 09:35:00,
2013-02-09 04:40:00,29.8,25.5,30.27,NW,314,0.0,7.0,84,0.00,,,0.00,0,HR-IXPWINDi_r2_v1.2.,2013-02-09 09:40:00,
2013-02-09 04:45:00,29.7,25.4,30.27,North,350,5.0,7.0,84,0.00,,,0.00,0,HR-IXPWINDi_r2_v1.2.,2013-02-09 09:45:00,
2013-02-09 04:51:00,29.8,25.5,30.27,North,355,0.0,7.0,84,0.00,,,0.00,0,HR-IXPWINDi_r2_v1.2.,2013-02-09 09:51:00,
2013-02-09 04:56:00,29.7,25.4,30.27,NW,320,5.0,11.0,84,0.00,,,0.00,0,HR-IXPWINDi_r2_v1.2.,2013-02-09 09:56:00,
2013-02-09 05:01:00,29.8,25.5,30.27,WNW,301,2.0,13.0,84,0.00,,,0.00,0,HR-IXPWINDi_r2_v1.2.,2013-02-09 10:01:00,
2013-02-09 05:06:00,29.8,25.5,30.27,North,5,9.0,13.0,84,0.00,,,0.00,0,HR-IXPWINDi_r2_v1.2.,2013-02-09 10:06:00,
2013-02-09 05:11:00,29.9,25.6,30.27,NW,326,4.0,15.0,84,0.00,,,0.00,0,HR-IXPWINDi_r2_v1.2.,2013-02-09 10:11:00,
2013-02-09 05:17:00,30.0,25.7,30.28,NNW,332,6.0,15.0,84,0.00,,,0.00,0,HR-IXPWINDi_r2_v1.2.,2013-02-09 10:17:00,
2013-02-09 05:22:00,29.9,25.6,30.28,NW,317,3.0,13.0,84,0.00,,,0.00,0,HR-IXPWINDi_r2_v1.2.,2013-02-09 10:22:00,
2013-02-09 05:27:00,29.8,25.5,30.29,NNW,330,4.0,12.0,84,0.00,,,0.00,0,HR-IXPWINDi_r2_v1.2.,2013-02-09 10:27:00,
2013-02-09 05:32:00,29.7,25.4,30.29,West,259,3.0,12.0,84,0.00,,,0.00,0,HR-IXPWINDi_r2_v1.2.,2013-02-09 10:32:00,
2013-02-09 05:38:00,29.8,25.3,30.29,SSW,211,4.0,7.0,83,0.00,,,0.00,0,HR-IXPWINDi_r2_v1.2.,2013-02-09 10:38:00,
2013-02-09 05:43:00,29.6,25.1,30.30,SSW,194,2.0,7.0,83,0.00,,,0.00,0,HR-IXPWINDi_r2_v1.2.,2013-02-09 10:43:00,
2013-02-09 05:48:00,29.4,24.9,30.30,WSW,247,0.0,5.0,83,0.00,,,0.00,0,HR-IXPWINDi_r2_v1.2.,2013-02-09 10:48:00,
2013-02-09 05:53:00,29.5,25.3,30.30,West,270,0.0,10.0,84,0.00,,,0.00,0,HR-IXPWINDi_r2_v1.2.,2013-02-09 10:53:00,
2013-02-09 05:58:00,29.3,24.8,30.30,NNW,340,2.0,10.0,83,0.00,,,0.00,0,HR-IXPWINDi_r2_v1.2.,2013-02-09 10:58:00,
2013-02-09 06:03:00,29.3,24.8,30.30,NNW,340,0.0,5.0,83,0.00,,,0.00,0,HR-IXPWINDi_r2_v1.2.,2013-02-09 11:03:00,
2013-02-09 06:08:00,29.0,24.8,30.30,NNW,339,0.0,3.0,84,0.00,,,0.00,0,HR-IXPWINDi_r2_v1.2.,2013-02-09 11:08:00,
2013-02-09 06:13:00,28.8,24.6,30.30,SSW,200,0.0,6.0,84,0.00,,,0.00,0,HR-IXPWINDi_r2_v1.2.,2013-02-09 11:13:00,
2013-02-09 06:19:00,28.8,24.9,30.31,North,5,4.0,6.0,85,0.00,,,0.00,0,HR-IXPWINDi_r2_v1.2.,2013-02-09 11:19:00,
2013-02-09 06:24:00,29.0,24.8,30.31,South,181,1.0,5.0,84,0.00,,,0.00,0,HR-IXPWINDi_r2_v1.2.,2013-02-09 11:24:00,
2013-02-09 06:29:00,28.4,24.2,30.31,South,184,2.0,4.0,84,0.00,,,0.00,0,HR-IXPWINDi_r2_v1.2.,2013-02-09 11:29:00,
2013-02-09 06:34:00,28.4,24.5,30.31,North,5,2.0,6.0,85,0.00,,,0.00,0,HR-IXPWINDi_r2_v1.2.,2013-02-09 11:34:00,
2013-02-09 06:39:00,28.4,24.2,30.31,West,262,0.0,6.0,84,0.00,,,0.00,0,HR-IXPWINDi_r2_v1.2.,2013-02-09 11:39:00,
2013-02-09 06:45:00,28.6,24.4,30.31,SW,232,0.0,5.0,84,0.00,,,0.00,0,HR-IXPWINDi_r2_v1.2.,2013-02-09 11:45:00,
2013-02-09 06:50:00,28.7,24.2,30.32,SW,232,2.0,5.0,83,0.00,,,0.00,0,HR-IXPWINDi_r2_v1.2.,2013-02-09 11:50:00,
2013-02-09 06:55:00,28.2,24.0,30.32,South,176,0.0,5.0,84,0.00,,,0.00,0,HR-IXPWINDi_r2_v1.2.,2013-02-09 11:55:00,
2013-02-09 07:00:00,28.2,24.0,30.32,SE,146,2.0,6.0,84,0.00,,,0.00,0,HR-IXPWINDi_r2_v1.2.,2013-02-09 12:00:00,
2013-02-09 07:05:00,28.3,24.1,30.32,SSW,198,4.0,8.0,84,0.00,,,0.00,0,HR-IXPWINDi_r2_v1.2.,2013-02-09 12:05:00,
2013-02-09 07:10:00,28.5,24.3,30.32,SSW,209,3.0,8.0,84,0.00,,,0.00,0,HR-IXPWINDi_r2_v1.2.,2013-02-09 12:10:00,
2013-02-09 07:16:00,28.6,24.1,30.33,WSW,242,0.0,7.0,83,0.00,,,0.00,0,HR-IXPWINDi_r2_v1.2.,2013-02-09 12:16:00,
2013-02-09 07:21:00,28.3,23.8,30.34,SSW,207,0.0,10.0,83,0.00,,,0.00,0,HR-IXPWINDi_r2_v1.2.,2013-02-09 12:21:00,
2013-02-09 07:26:00,28.0,23.8,30.34,SSW,209,0.0,10.0,84,0.00,,,0.00,5,HR-IXPWINDi_r2_v1.2.,2013-02-09 12:26:00,
2013-02-09 07:31:00,28.3,24.1,30.34,SSW,198,5.0,9.0,84,0.00,,,0.00,7,HR-IXPWINDi_r2_v1.2.,2013-02-09 12:31:00,
2013-02-09 07:37:00,28.3,23.8,30.34,SSW,207,2.0,10.0,83,0.00,,,0.00,11,HR-IXPWINDi_r2_v1.2.,2013-02-09 12:37:00,
2013-02-09 07:42:00,28.1,23.9,30.34,SW,215,0.0,10.0,84,0.00,,,0.00,12,HR-IXPWINDi_r2_v1.2.,2013-02-09 12:42:00,
2013-02-09 07:47:00,28.1,23.9,30.34,SSW,211,0.0,6.0,84,0.00,,,0.00,14,HR-IXPWINDi_r2_v1.2.,2013-02-09 12:47:00,
2013-02-09 07:52:00,28.4,23.9,30.34,SSW,211,1.0,13.0,83,0.00,,,0.00,18,HR-IXPWINDi_r2_v1.2.,2013-02-09 12:52:00,
2013-02-09 07:57:00,27.9,23.4,30.34,SSW,210,0.0,13.0,83,0.00,,,0.00,19,HR-IXPWINDi_r2_v1.2.,2013-02-09 12:57:00,
2013-02-09 08:02:00,27.6,23.4,30.35,SSW,203,0.0,5.0,84,0.00,,,0.00,26,HR-IXPWINDi_r2_v1.2.,2013-02-09 13:02:00,
2013-02-09 08:08:00,28.0,24.1,30.35,SSW,203,0.0,4.0,85,0.00,,,0.00,69,HR-IXPWINDi_r2_v1.2.,2013-02-09 13:08:00,
2013-02-09 08:13:00,28.9,25.0,30.35,SSW,203,3.0,3.0,85,0.00,,,0.00,88,HR-IXPWINDi_r2_v1.2.,2013-02-09 13:13:00,
2013-02-09 08:18:00,29.7,25.2,30.35,SSW,203,2.0,4.0,83,0.00,,,0.00,102,HR-IXPWINDi_r2_v1.2.,2013-02-09 13:18:00,
2013-02-09 08:23:00,30.2,25.4,30.35,West,275,1.0,4.0,82,0.00,,,0.00,123,HR-IXPWINDi_r2_v1.2.,2013-02-09 13:23:00,
2013-02-09 08:28:00,30.7,25.6,30.35,West,275,0.0,4.0,81,0.00,,,0.00,142,HR-IXPWINDi_r2_v1.2.,2013-02-09 13:28:00,
2013-02-09 08:34:00,30.8,25.4,30.35,West,273,0.0,4.0,80,0.00,,,0.00,167,HR-IXPWINDi_r2_v1.2.,2013-02-09 13:34:00,
2013-02-09 08:39:00,30.9,25.4,30.36,SSW,211,2.0,4.0,80,0.00,,,0.00,186,HR-IXPWINDi_r2_v1.2.,2013-02-09 13:39:00,
2013-02-09 08:44:00,31.2,25.7,30.36,SSW,202,1.0,6.0,80,0.00,,,0.00,202,HR-IXPWINDi_r2_v1.2.,2013-02-09 13:44:00,
2013-02-09 08:49:00,31.1,25.6,30.36,SSW,200,1.0,7.0,80,0.00,,,0.00,227,HR-IXPWINDi_r2_v1.2.,2013-02-09 13:49:00,
2013-02-09 08:54:00,31.3,25.5,30.36,South,189,6.0,9.0,79,0.00,,,0.00,246,HR-IXPWINDi_r2_v1.2.,2013-02-09 13:54:00,
2013-02-09 08:59:00,31.3,25.5,30.36,SSW,203,3.0,9.0,79,0.00,,,0.00,264,HR-IXPWINDi_r2_v1.2.,2013-02-09 13:59:00,
2013-02-09 09:05:00,31.4,25.6,30.36,South,188,4.0,9.0,79,0.00,,,0.00,278,HR-IXPWINDi_r2_v1.2.,2013-02-09 14:05:00,
2013-02-09 09:10:00,31.4,25.6,30.36,SSW,196,4.0,8.0,79,0.00,,,0.00,294,HR-IXPWINDi_r2_v1.2.,2013-02-09 14:10:00,
2013-02-09 09:15:00,31.8,25.7,30.36,South,183,4.0,6.0,78,0.00,,,0.00,309,HR-IXPWINDi_r2_v1.2.,2013-02-09 14:15:00,
2013-02-09 09:20:00,31.8,25.7,30.36,SSW,200,1.0,8.0,78,0.00,,,0.00,323,HR-IXPWINDi_r2_v1.2.,2013-02-09 14:20:00,
2013-02-09 09:25:00,31.8,25.7,30.36,SSW,196,2.0,8.0,78,0.00,,,0.00,339,HR-IXPWINDi_r2_v1.2.,2013-02-09 14:25:00,
2013-02-09 09:30:00,32.0,25.9,30.37,SSW,198,5.0,10.0,78,0.00,,,0.00,353,HR-IXPWINDi_r2_v1.2.,2013-02-09 14:30:00,
2013-02-09 09:36:00,32.1,25.7,30.37,South,191,4.0,11.0,77,0.00,,,0.00,367,HR-IXPWINDi_r2_v1.2.,2013-02-09 14:36:00,
2013-02-09 09:41:00,32.9,26.8,30.37,SSW,199,8.0,11.0,78,0.00,,,0.00,381,HR-IXPWINDi_r2_v1.2.,2013-02-09 14:41:00,
2013-02-09 09:46:00,33.1,26.7,30.37,SSW,207,7.0,12.0,77,0.00,,,0.00,396,HR-IXPWINDi_r2_v1.2.,2013-02-09 14:46:00,
2013-02-09 09:51:00,33.3,26.2,30.37,SSE,168,5.0,12.0,75,0.00,,,0.00,410,HR-IXPWINDi_r2_v1.2.,2013-02-09 14:51:00,
2013-02-09 09:57:00,33.8,27.0,30.37,South,182,7.0,8.0,76,0.00,,,0.00,425,HR-IXPWINDi_r2_v1.2.,2013-02-09 14:57:00,
2013-02-09 10:02:00,33.6,26.5,30.37,SSW,192,5.0,11.0,75,0.00,,,0.00,438,HR-IXPWINDi_r2_v1.2.,2013-02-09 15:02:00,
2013-02-09 10:07:00,33.7,26.3,30.37,South,186,5.0,11.0,74,0.00,,,0.00,450,HR-IXPWINDi_r2_v1.2.,2013-02-09 15:07:00,
2013-02-09 10:12:00,34.3,26.9,30.37,South,185,5.0,11.0,74,0.00,,,0.00,464,HR-IXPWINDi_r2_v1.2.,2013-02-09 15:12:00,
2013-02-09 10:17:00,34.6,26.8,30.37,SSW,192,2.0,8.0,73,0.00,,,0.00,471,HR-IXPWINDi_r2_v1.2.,2013-02-09 15:17:00,
2013-02-09 10:23:00,34.9,26.4,30.37,SSW,194,6.0,10.0,71,0.00,,,0.00,487,HR-IXPWINDi_r2_v1.2.,2013-02-09 15:23:00,
2013-02-09 10:28:00,35.1,26.6,30.37,SSW,193,7.0,10.0,71,0.00,,,0.00,496,HR-IXPWINDi_r2_v1.2.,2013-02-09 15:28:00,
2013-02-09 10:33:00,35.3,26.5,30.37,SSW,199,6.0,10.0,70,0.00,,,0.00,510,HR-IXPWINDi_r2_v1.2.,2013-02-09 15:33:00,
2013-02-09 10:38:00,35.9,27.1,30.37,ESE,118,1.0,10.0,70,0.00,,,0.00,519,HR-IXPWINDi_r2_v1.2.,2013-02-09 15:38:00,
2013-02-09 10:43:00,37.3,27.7,30.37,NW,321,3.0,11.0,68,0.00,,,0.00,529,HR-IXPWINDi_r2_v1.2.,2013-02-09 15:43:00,
2013-02-09 10:49:00,37.2,27.2,30.37,SSW,207,0.0,11.0,67,0.00,,,0.00,540,HR-IXPWINDi_r2_v1.2.,2013-02-09 15:49:00,
2013-02-09 10:54:00,37.9,27.2,30.37,WNW,283,3.0,10.0,65,0.00,,,0.00,550,HR-IXPWINDi_r2_v1.2.,2013-02-09 15:54:00,
2013-02-09 10:59:00,38.0,26.9,30.37,SSW,204,6.0,7.0,64,0.00,,,0.00,559,HR-IXPWINDi_r2_v1.2.,2013-02-09 15:59:00,
2013-02-09 11:04:00,37.9,26.8,30.38,SSW,199,7.0,9.0,64,0.00,,,0.00,568,HR-IXPWINDi_r2_v1.2.,2013-02-09 16:04:00,
2013-02-09 11:09:00,38.5,27.4,30.38,SSE,159,4.0,9.0,64,0.00,,,0.00,577,HR-IXPWINDi_r2_v1.2.,2013-02-09 16:09:00,
2013-02-09 11:15:00,38.8,26.9,30.38,SSW,202,8.0,9.0,62,0.00,,,0.00,585,HR-IXPWINDi_r2_v1.2.,2013-02-09 16:15:00,
2013-02-09 11:20:00,39.1,27.9,30.38,South,178,4.0,9.0,64,0.00,,,0.00,591,HR-IXPWINDi_r2_v1.2.,2013-02-09 16:20:00,
2013-02-09 11:25:00,39.2,26.9,30.38,South,185,4.0,9.0,61,0.00,,,0.00,598,HR-IXPWINDi_r2_v1.2.,2013-02-09 16:25:00,
2013-02-09 11:30:00,39.3,26.6,30.37,SSW,205,2.0,11.0,60,0.00,,,0.00,605,HR-IXPWINDi_r2_v1.2.,2013-02-09 16:30:00,
2013-02-09 11:35:00,39.3,27.0,30.37,SSE,153,5.0,11.0,61,0.00,,,0.00,610,HR-IXPWINDi_r2_v1.2.,2013-02-09 16:35:00,
2013-02-09 11:40:00,39.9,27.1,30.37,South,171,6.0,10.0,60,0.00,,,0.00,613,HR-IXPWINDi_r2_v1.2.,2013-02-09 16:40:00,
2013-02-09 11:46:00,40.7,27.5,30.37,SSE,163,0.0,10.0,59,0.00,,,0.00,619,HR-IXPWINDi_r2_v1.2.,2013-02-09 16:46:00,
2013-02-09 11:51:00,41.9,27.8,30.37,SSW,193,4.0,8.0,57,0.00,,,0.00,626,HR-IXPWINDi_r2_v1.2.,2013-02-09 16:51:00,
2013-02-09 11:56:00,41.9,27.8,30.37,SSE,148,7.0,8.0,57,0.00,,,0.00,629,HR-IXPWINDi_r2_v1.2.,2013-02-09 16:56:00,
2013-02-09 12:01:00,41.8,26.8,30.37,South,181,2.0,8.0,55,0.00,,,0.00,633,HR-IXPWINDi_r2_v1.2.,2013-02-09 17:01:00,
2013-02-09 12:06:00,42.2,26.3,30.37,SSW,196,6.0,8.0,53,0.00,,,0.00,638,HR-IXPWINDi_r2_v1.2.,2013-02-09 17:06:00,
2013-02-09 12:11:00,42.1,26.2,30.37,SSW,207,7.0,8.0,53,0.00,,,0.00,640,HR-IXPWINDi_r2_v1.2.,2013-02-09 17:11:00,
2013-02-09 12:16:00,42.2,25.4,30.37,SSE,165,4.0,7.0,51,0.00,,,0.00,642,HR-IXPWINDi_r2_v1.2.,2013-02-09 17:16:00,
2013-02-09 12:21:00,43.2,25.8,30.36,South,182,0.0,9.0,50,0.00,,,0.00,645,HR-IXPWINDi_r2_v1.2.,2013-02-09 17:21:00,
2013-02-09 12:27:00,45.9,28.3,30.36,South,178,4.0,9.0,50,0.00,,,0.00,649,HR-IXPWINDi_r2_v1.2.,2013-02-09 17:27:00,
2013-02-09 12:32:00,44.3,25.3,30.36,SE,142,1.0,8.0,47,0.00,,,0.00,650,HR-IXPWINDi_r2_v1.2.,2013-02-09 17:32:00,
2013-02-09 12:37:00,44.7,25.2,30.36,South,179,0.0,8.0,46,0.00,,,0.00,649,HR-IXPWINDi_r2_v1.2.,2013-02-09 17:37:00,
2013-02-09 12:42:00,45.7,26.6,30.35,SE,142,2.0,6.0,47,0.00,,,0.00,649,HR-IXPWINDi_r2_v1.2.,2013-02-09 17:42:00,
2013-02-09 12:47:00,45.6,25.5,30.35,SSE,149,5.0,9.0,45,0.00,,,0.00,649,HR-IXPWINDi_r2_v1.2.,2013-02-09 17:47:00,
2013-02-09 12:53:00,46.2,26.0,30.35,South,187,5.0,9.0,45,0.00,,,0.00,647,HR-IXPWINDi_r2_v1.2.,2013-02-09 17:53:00,
2013-02-09 12:58:00,46.1,25.4,30.35,SE,141,2.0,9.0,44,0.00,,,0.00,645,HR-IXPWINDi_r2_v1.2.,2013-02-09 17:58:00,
2013-02-09 13:03:00,45.9,24.1,30.34,SSE,153,2.0,9.0,42,0.00,,,0.00,642,HR-IXPWINDi_r2_v1.2.,2013-02-09 18:03:00,
2013-02-09 13:08:00,46.6,24.1,30.34,SSE,165,4.0,9.0,41,0.00,,,0.00,642,HR-IXPWINDi_r2_v1.2.,2013-02-09 18:08:00,
2013-02-09 13:13:00,47.0,25.1,30.34,South,181,4.0,10.0,42,0.00,,,0.00,640,HR-IXPWINDi_r2_v1.2.,2013-02-09 18:13:00,
2013-02-09 13:19:00,47.1,24.0,30.34,SSW,194,3.0,10.0,40,0.00,,,0.00,636,HR-IXPWINDi_r2_v1.2.,2013-02-09 18:19:00,
2013-02-09 13:24:00,48.4,25.2,30.34,SSW,201,1.0,7.0,40,0.00,,,0.00,629,HR-IXPWINDi_r2_v1.2.,2013-02-09 18:24:00,
2013-02-09 13:29:00,48.2,23.8,30.34,SSW,193,2.0,7.0,38,0.00,,,0.00,626,HR-IXPWINDi_r2_v1.2.,2013-02-09 18:29:00,
2013-02-09 13:34:00,49.4,24.8,30.34,South,178,5.0,6.0,38,0.00,,,0.00,622,HR-IXPWINDi_r2_v1.2.,2013-02-09 18:34:00,
2013-02-09 13:39:00,49.0,22.5,30.33,SSE,163,2.0,9.0,35,0.00,,,0.00,619,HR-IXPWINDi_r2_v1.2.,2013-02-09 18:39:00,
2013-02-09 13:44:00,49.1,23.3,30.33,South,177,1.0,9.0,36,0.00,,,0.00,612,HR-IXPWINDi_r2_v1.2.,2013-02-09 18:44:00,
2013-02-09 13:50:00,49.2,23.4,30.33,SE,138,6.0,7.0,36,0.00,,,0.00,606,HR-IXPWINDi_r2_v1.2.,2013-02-09 18:50:00,
2013-02-09 13:55:00,49.6,22.4,30.33,SSE,154,4.0,8.0,34,0.00,,,0.00,601,HR-IXPWINDi_r2_v1.2.,2013-02-09 18:55:00,
2013-02-09 14:00:00,49.7,21.8,30.33,SSE,166,0.0,8.0,33,0.00,,,0.00,592,HR-IXPWINDi_r2_v1.2.,2013-02-09 19:00:00,
2013-02-09 14:05:00,50.7,22.6,30.32,South,170,6.0,7.0,33,0.00,,,0.00,587,HR-IXPWINDi_r2_v1.2.,2013-02-09 19:05:00,
2013-02-09 14:10:00,50.7,21.9,30.32,SSW,195,3.0,9.0,32,0.00,,,0.00,580,HR-IXPWINDi_r2_v1.2.,2013-02-09 19:10:00,
2013-02-09 14:15:00,50.9,21.3,30.32,South,184,4.0,9.0,31,0.00,,,0.00,571,HR-IXPWINDi_r2_v1.2.,2013-02-09 19:15:00,
2013-02-09 14:21:00,50.7,23.3,30.31,SE,139,0.0,7.0,34,0.00,,,0.00,563,HR-IXPWINDi_r2_v1.2.,2013-02-09 19:21:00,
2013-02-09 14:26:00,51.5,23.3,30.31,SE,146,4.0,7.0,33,0.00,,,0.00,554,HR-IXPWINDi_r2_v1.2.,2013-02-09 19:26:00,
2013-02-09 14:31:00,51.5,23.3,30.31,SE,135,0.0,6.0,33,0.00,,,0.00,545,HR-IXPWINDi_r2_v1.2.,2013-02-09 19:31:00,
2013-02-09 14:36:00,51.9,25.1,30.31,South,179,6.0,6.0,35,0.00,,,0.00,538,HR-IXPWINDi_r2_v1.2.,2013-02-09 19:36:00,
2013-02-09 14:41:00,53.1,25.5,30.31,SSW,200,4.0,6.0,34,0.00,,,0.00,527,HR-IXPWINDi_r2_v1.2.,2013-02-09 19:41:00,
2013-02-09 14:46:00,53.3,24.2,30.31,SSE,153,2.0,6.0,32,0.00,,,0.00,517,HR-IXPWINDi_r2_v1.2.,2013-02-09 19:46:00,
2013-02-09 14:52:00,52.9,23.8,30.31,SE,135,0.0,7.0,32,0.00,,,0.00,504,HR-IXPWINDi_r2_v1.2.,2013-02-09 19:52:00,
2013-02-09 14:57:00,53.2,24.1,30.31,South,188,0.0,7.0,32,0.00,,,0.00,496,HR-IXPWINDi_r2_v1.2.,2013-02-09 19:57:00,
2013-02-09 15:02:00,53.3,24.2,30.30,SSE,162,2.0,6.0,32,0.00,,,0.00,483,HR-IXPWINDi_r2_v1.2.,2013-02-09 20:02:00,
2013-02-09 15:07:00,53.6,24.4,30.30,SSW,194,6.0,7.0,32,0.00,,,0.00,471,HR-IXPWINDi_r2_v1.2.,2013-02-09 20:07:00,
2013-02-09 15:12:00,52.6,23.6,30.30,South,186,1.0,7.0,32,0.00,,,0.00,459,HR-IXPWINDi_r2_v1.2.,2013-02-09 20:12:00,
2013-02-09 15:17:00,53.2,24.1,30.30,South,184,5.0,8.0,32,0.00,,,0.00,446,HR-IXPWINDi_r2_v1.2.,2013-02-09 20:17:00,
2013-02-09 15:22:00,53.9,25.4,30.30,South,174,0.0,8.0,33,0.00,,,0.00,432,HR-IXPWINDi_r2_v1.2.,2013-02-09 20:22:00,
2013-02-09 15:28:00,53.5,22.8,30.30,SSW,202,5.0,8.0,30,0.00,,,0.00,420,HR-IXPWINDi_r2_v1.2.,2013-02-09 20:28:00,
2013-02-09 15:33:00,53.3,23.4,30.30,SSE,153,4.0,7.0,31,0.00,,,0.00,408,HR-IXPWINDi_r2_v1.2.,2013-02-09 20:33:00,
2013-02-09 15:38:00,53.7,24.5,30.30,South,182,7.0,9.0,32,0.00,,,0.00,392,HR-IXPWINDi_r2_v1.2.,2013-02-09 20:38:00,
2013-02-09 15:43:00,53.5,22.0,30.29,SSW,192,2.0,9.0,29,0.00,,,0.00,381,HR-IXPWINDi_r2_v1.2.,2013-02-09 20:43:00,
2013-02-09 15:48:00,53.9,23.2,30.29,SSE,165,4.0,8.0,30,0.00,,,0.00,355,HR-IXPWINDi_r2_v1.2.,2013-02-09 20:48:00,
2013-02-09 15:54:00,53.9,22.4,30.29,South,170,1.0,6.0,29,0.00,,,0.00,325,HR-IXPWINDi_r2_v1.2.,2013-02-09 20:54:00,
2013-02-09 15:59:00,54.6,23.0,30.29,WSW,255,0.0,5.0,29,0.00,,,0.00,338,HR-IXPWINDi_r2_v1.2.,2013-02-09 20:59:00,
2013-02-09 16:04:00,55.5,23.8,30.29,North,5,0.0,4.0,29,0.00,,,0.00,318,HR-IXPWINDi_r2_v1.2.,2013-02-09 21:04:00,
2013-02-09 16:09:00,55.9,24.1,30.29,SW,217,0.0,4.0,29,0.00,,,0.00,308,HR-IXPWINDi_r2_v1.2.,2013-02-09 21:09:00,
2013-02-09 16:15:00,54.4,22.0,30.29,SSW,200,0.0,6.0,28,0.00,,,0.00,288,HR-IXPWINDi_r2_v1.2.,2013-02-09 21:15:00,
2013-02-09 16:20:00,54.6,22.1,30.29,SSW,198,1.0,6.0,28,0.00,,,0.00,276,HR-IXPWINDi_r2_v1.2.,2013-02-09 21:20:00,
2013-02-09 16:25:00,54.2,22.6,30.29,SSW,194,2.0,6.0,29,0.00,,,0.00,250,HR-IXPWINDi_r2_v1.2.,2013-02-09 21:25:00,
2013-02-09 16:30:00,54.0,21.6,30.29,SSW,198,4.0,7.0,28,0.00,,,0.00,241,HR-IXPWINDi_r2_v1.2.,2013-02-09 21:30:00,
2013-02-09 16:35:00,53.9,21.5,30.29,South,188,2.0,7.0,28,0.00,,,0.00,162,HR-IXPWINDi_r2_v1.2.,2013-02-09 21:35:00,
2013-02-09 16:41:00,54.0,22.5,30.29,South,174,4.0,6.0,29,0.00,,,0.00,105,HR-IXPWINDi_r2_v1.2.,2013-02-09 21:41:00,
2013-02-09 16:46:00,53.9,23.2,30.29,South,180,0.0,5.0,30,0.00,,,0.00,77,HR-IXPWINDi_r2_v1.2.,2013-02-09 21:46:00,
2013-02-09 16:51:00,53.8,22.3,30.30,SSW,194,3.0,5.0,29,0.00,,,0.00,30,HR-IXPWINDi_r2_v1.2.,2013-02-09 21:51:00,
2013-02-09 16:56:00,53.5,22.8,30.30,SSW,194,0.0,5.0,30,0.00,,,0.00,28,HR-IXPWINDi_r2_v1.2.,2013-02-09 21:56:00,
2013-02-09 17:02:00,51.5,29.1,30.30,SSW,194,0.0,5.0,42,0.00,,,0.00,26,HR-IXPWINDi_r2_v1.2.,2013-02-09 22:02:00,
2013-02-09 17:07:00,49.6,28.6,30.29,SE,140,2.0,2.0,44,0.00,,,0.00,26,HR-IXPWINDi_r2_v1.2.,2013-02-09 22:07:00,
2013-02-09 17:12:00,48.5,29.2,30.29,SE,140,0.0,2.0,47,0.00,,,0.00,32,HR-IXPWINDi_r2_v1.2.,2013-02-09 22:12:00,
2013-02-09 17:17:00,47.8,29.0,30.29,SE,140,1.0,2.0,48,0.00,,,0.00,33,HR-IXPWINDi_r2_v1.2.,2013-02-09 22:17:00,
2013-02-09 17:23:00,47.2,28.0,30.29,SE,140,0.0,2.0,47,0.00,,,0.00,30,HR-IXPWINDi_r2_v1.2.,2013-02-09 22:23:00,
2013-02-09 17:28:00,46.0,28.9,30.29,ESE,119,2.0,4.0,51,0.00,,,0.00,21,HR-IXPWINDi_r2_v1.2.,2013-02-09 22:28:00,
2013-02-09 17:33:00,45.6,27.0,30.29,ESE,119,2.0,6.0,48,0.00,,,0.00,14,HR-IXPWINDi_r2_v1.2.,2013-02-09 22:33:00,
2013-02-09 17:38:00,45.6,27.5,30.29,ESE,117,0.0,6.0,49,0.00,,,0.00,12,HR-IXPWINDi_r2_v1.2.,2013-02-09 22:38:00,
2013-02-09 17:44:00,45.2,30.0,30.30,ESE,117,0.0,5.0,55,0.00,,,0.00,12,HR-IXPWINDi_r2_v1.2.,2013-02-09 22:44:00,
2013-02-09 17:49:00,46.2,33.1,30.30,ESE,117,0.0,2.0,60,0.00,,,0.00,12,HR-IXPWINDi_r2_v1.2.,2013-02-09 22:49:00,
2013-02-09 17:54:00,45.4,33.1,30.30,ESE,117,0.0,0.0,62,0.00,,,0.00,11,HR-IXPWINDi_r2_v1.2.,2013-02-09 22:54:00,
2013-02-09 17:59:00,43.1,30.9,30.30,ESE,117,0.0,4.0,62,0.00,,,0.00,5,HR-IXPWINDi_r2_v1.2.,2013-02-09 22:59:00,
2013-02-09 18:04:00,42.0,31.1,30.30,ESE,117,0.0,4.0,65,0.00,,,0.00,0,HR-IXPWINDi_r2_v1.2.,2013-02-09 23:04:00,
2013-02-09 18:09:00,41.2,31.0,30.30,ESE,117,0.0,2.0,67,0.00,,,0.00,0,HR-IXPWINDi_r2_v1.2.,2013-02-09 23:09:00,
2013-02-09 18:15:00,40.4,31.4,30.30,ESE,117,0.0,2.0,70,0.00,,,0.00,0,HR-IXPWINDi_r2_v1.2.,2013-02-09 23:15:00,
2013-02-09 18:20:00,40.6,31.6,30.30,ESE,117,0.0,2.0,70,0.00,,,0.00,0,HR-IXPWINDi_r2_v1.2.,2013-02-09 23:20:00,
2013-02-09 18:25:00,40.2,31.2,30.31,ESE,117,1.0,2.0,70,0.00,,,0.00,0,HR-IXPWINDi_r2_v1.2.,2013-02-09 23:25:00,
2013-02-09 18:30:00,39.0,30.7,30.31,ESE,117,4.0,5.0,72,0.00,,,0.00,0,HR-IXPWINDi_r2_v1.2.,2013-02-09 23:30:00,
2013-02-09 18:35:00,39.2,30.9,30.31,ESE,117,2.0,5.0,72,0.00,,,0.00,0,HR-IXPWINDi_r2_v1.2.,2013-02-09 23:35:00,
2013-02-09 18:40:00,39.0,30.4,30.31,ESE,117,1.0,5.0,71,0.00,,,0.00,0,HR-IXPWINDi_r2_v1.2.,2013-02-09 23:40:00,
2013-02-09 18:46:00,39.2,30.6,30.31,ESE,117,2.0,5.0,71,0.00,,,0.00,0,HR-IXPWINDi_r2_v1.2.,2013-02-09 23:46:00,
2013-02-09 18:51:00,38.3,30.7,30.31,ESE,119,1.0,4.0,74,0.00,,,0.00,0,HR-IXPWINDi_r2_v1.2.,2013-02-09 23:51:00,
2013-02-09 18:56:00,37.1,30.2,30.31,ESE,120,0.0,4.0,76,0.00,,,0.00,0,HR-IXPWINDi_r2_v1.2.,2013-02-09 23:56:00,
2013-02-09 19:01:00,36.9,30.3,30.31,ESE,120,2.0,4.0,77,0.00,,,0.00,0,HR-IXPWINDi_r2_v1.2.,2013-02-10 00:01:00,
2013-02-09 19:06:00,36.3,30.1,30.31,ESE,120,0.0,4.0,78,0.00,,,0.00,0,HR-IXPWINDi_r2_v1.2.,2013-02-10 00:06:00,
2013-02-09 19:12:00,36.3,30.1,30.32,ESE,121,1.0,5.0,78,0.00,,,0.00,0,HR-IXPWINDi_r2_v1.2.,2013-02-10 00:12:00,
2013-02-09 19:17:00,36.7,30.1,30.32,ESE,121,0.0,5.0,77,0.00,,,0.00,0,HR-IXPWINDi_r2_v1.2.,2013-02-10 00:17:00,
2013-02-09 19:22:00,37.0,30.4,30.32,ESE,109,1.0,4.0,77,0.00,,,0.00,0,HR-IXPWINDi_r2_v1.2.,2013-02-10 00:22:00,
2013-02-09 19:27:00,36.5,30.0,30.33,ESE,109,0.0,4.0,77,0.00,,,0.00,0,HR-IXPWINDi_r2_v1.2.,2013-02-10 00:27:00,
2013-02-09 19:32:00,35.6,29.4,30.33,ESE,110,1.0,4.0,78,0.00,,,0.00,0,HR-IXPWINDi_r2_v1.2.,2013-02-10 00:32:00,
2013-02-09 19:38:00,35.5,29.6,30.33,ESE,112,2.0,4.0,79,0.00,,,0.00,0,HR-IXPWINDi_r2_v1.2.,2013-02-10 00:38:00,
2013-02-09 19:43:00,35.5,29.9,30.33,ESE,112,0.0,4.0,80,0.00,,,0.00,0,HR-IXPWINDi_r2_v1.2.,2013-02-10 00:43:00,
2013-02-09 19:48:00,35.5,29.9,30.33,ESE,120,1.0,5.0,80,0.00,,,0.00,0,HR-IXPWINDi_r2_v1.2.,2013-02-10 00:48:00,
2013-02-09 19:53:00,35.3,29.4,30.33,ESE,120,1.0,5.0,79,0.00,,,0.00,0,HR-IXPWINDi_r2_v1.2.,2013-02-10 00:53:00,
2013-02-09 19:58:00,34.3,28.8,30.33,ESE,123,0.0,6.0,80,0.00,,,0.00,0,HR-IXPWINDi_r2_v1.2.,2013-02-10 00:58:00,
2013-02-09 20:04:00,34.2,29.6,30.33,ESE,123,0.0,6.0,83,0.00,,,0.00,0,HR-IXPWINDi_r2_v1.2.,2013-02-10 01:04:00,
2013-02-09 20:09:00,34.4,29.5,30.33,ESE,110,0.0,4.0,82,0.00,,,0.00,0,HR-IXPWINDi_r2_v1.2.,2013-02-10 01:09:00,
2013-02-09 20:14:00,34.4,29.2,30.33,ESE,110,4.0,4.0,81,0.00,,,0.00,0,HR-IXPWINDi_r2_v1.2.,2013-02-10 01:14:00,
2013-02-09 20:19:00,33.7,28.8,30.33,ESE,110,0.0,4.0,82,0.00,,,0.00,0,HR-IXPWINDi_r2_v1.2.,2013-02-10 01:19:00,
2013-02-09 20:24:00,33.6,28.7,30.34,ESE,110,0.0,4.0,82,0.00,,,0.00,0,HR-IXPWINDi_r2_v1.2.,2013-02-10 01:24:00,
2013-02-09 20:29:00,33.5,28.9,30.34,ESE,107,0.0,4.0,83,0.00,,,0.00,0,HR-IXPWINDi_r2_v1.2.,2013-02-10 01:29:00,
2013-02-09 20:35:00,34.2,29.3,30.34,ESE,107,0.0,4.0,82,0.00,,,0.00,0,HR-IXPWINDi_r2_v1.2.,2013-02-10 01:35:00,
2013-02-09 20:40:00,33.7,28.8,30.34,ESE,107,0.0,4.0,82,0.00,,,0.00,0,HR-IXPWINDi_r2_v1.2.,2013-02-10 01:40:00,
2013-02-09 20:45:00,34.0,29.1,30.34,ESE,104,1.0,4.0,82,0.00,,,0.00,0,HR-IXPWINDi_r2_v1.2.,2013-02-10 01:45:00,
2013-02-09 20:50:00,34.3,28.8,30.35,ESE,119,1.0,4.0,80,0.00,,,0.00,0,HR-IXPWINDi_r2_v1.2.,2013-02-10 01:50:00,
2013-02-09 20:55:00,34.2,28.7,30.35,ESE,113,4.0,5.0,80,0.00,,,0.00,0,HR-IXPWINDi_r2_v1.2.,2013-02-10 01:55:00,
2013-02-09 21:00:00,34.1,28.6,30.35,ESE,109,2.0,5.0,80,0.00,,,0.00,0,HR-IXPWINDi_r2_v1.2.,2013-02-10 02:00:00,
2013-02-09 21:05:00,33.9,28.4,30.35,ESE,119,0.0,5.0,80,0.00,,,0.00,0,HR-IXPWINDi_r2_v1.2.,2013-02-10 02:05:00,
2013-02-09 21:11:00,33.1,28.2,30.35,ESE,119,0.0,5.0,82,0.00,,,0.00,0,HR-IXPWINDi_r2_v1.2.,2013-02-10 02:11:00,
2013-02-09 21:16:00,32.7,27.8,30.35,ESE,119,0.0,4.0,82,0.00,,,0.00,0,HR-IXPWINDi_r2_v1.2.,2013-02-10 02:16:00,
2013-02-09 21:21:00,33.0,28.4,30.35,ESE,119,2.0,4.0,83,0.00,,,0.00,0,HR-IXPWINDi_r2_v1.2.,2013-02-10 02:21:00,
2013-02-09 21:26:00,32.4,27.8,30.35,ESE,114,2.0,4.0,83,0.00,,,0.00,0,HR-IXPWINDi_r2_v1.2.,2013-02-10 02:26:00,
2013-02-09 21:31:00,33.0,28.4,30.35,ESE,112,4.0,5.0,83,0.00,,,0.00,0,HR-IXPWINDi_r2_v1.2.,2013-02-10 02:31:00,
2013-02-09 21:36:00,33.1,27.9,30.35,ESE,112,1.0,5.0,81,0.00,,,0.00,0,HR-IXPWINDi_r2_v1.2.,2013-02-10 02:36:00,
2013-02-09 21:42:00,32.8,27.9,30.35,ESE,112,1.0,4.0,82,0.00,,,0.00,0,HR-IXPWINDi_r2_v1.2.,2013-02-10 02:42:00,
2013-02-09 21:47:00,32.8,27.9,30.35,ESE,110,0.0,4.0,82,0.00,,,0.00,0,HR-IXPWINDi_r2_v1.2.,2013-02-10 02:47:00,
2013-02-09 21:52:00,32.4,27.8,30.35,SE,128,0.0,4.0,83,0.00,,,0.00,0,HR-IXPWINDi_r2_v1.2.,2013-02-10 02:52:00,
2013-02-09 21:57:00,32.5,27.9,30.35,SE,128,0.0,4.0,83,0.00,,,0.00,0,HR-IXPWINDi_r2_v1.2.,2013-02-10 02:57:00,
2013-02-09 22:03:00,32.9,28.3,30.35,SE,128,0.0,2.0,83,0.00,,,0.00,0,HR-IXPWINDi_r2_v1.2.,2013-02-10 03:03:00,
2013-02-09 22:08:00,33.0,28.1,30.35,ESE,109,2.0,4.0,82,0.00,,,0.00,0,HR-IXPWINDi_r2_v1.2.,2013-02-10 03:08:00,
2013-02-09 22:13:00,32.6,28.0,30.35,East,100,0.0,4.0,83,0.00,,,0.00,0,HR-IXPWINDi_r2_v1.2.,2013-02-10 03:13:00,
2013-02-09 22:18:00,32.2,27.6,30.35,East,100,0.0,4.0,83,0.00,,,0.00,0,HR-IXPWINDi_r2_v1.2.,2013-02-10 03:18:00,
2013-02-09 22:24:00,32.2,27.9,30.35,North,355,0.0,4.0,84,0.00,,,0.00,0,HR-IXPWINDi_r2_v1.2.,2013-02-10 03:24:00,
2013-02-09 22:29:00,32.4,27.8,30.35,North,355,0.0,4.0,83,0.00,,,0.00,0,HR-IXPWINDi_r2_v1.2.,2013-02-10 03:29:00,
2013-02-09 22:34:00,32.3,27.7,30.35,North,355,3.0,3.0,83,0.00,,,0.00,0,HR-IXPWINDi_r2_v1.2.,2013-02-10 03:34:00,
2013-02-09 22:39:00,32.0,27.4,30.35,North,355,0.0,3.0,83,0.00,,,0.00,0,HR-IXPWINDi_r2_v1.2.,2013-02-10 03:39:00,
2013-02-09 22:44:00,31.6,27.3,30.35,SE,124,0.0,5.0,84,0.00,,,0.00,0,HR-IXPWINDi_r2_v1.2.,2013-02-10 03:44:00,
2013-02-09 22:49:00,32.1,27.8,30.35,NNW,337,0.0,5.0,84,0.00,,,0.00,0,HR-IXPWINDi_r2_v1.2.,2013-02-10 03:49:00,
2013-02-09 22:55:00,32.2,27.6,30.35,NNW,339,0.0,4.0,83,0.00,,,0.00,0,HR-IXPWINDi_r2_v1.2.,2013-02-10 03:55:00,
2013-02-09 23:00:00,31.8,27.2,30.35,ESE,104,0.0,4.0,83,0.00,,,0.00,0,HR-IXPWINDi_r2_v1.2.,2013-02-10 04:00:00,
2013-02-09 23:05:00,31.9,27.3,30.35,NNE,22,0.0,5.0,83,0.00,,,0.00,0,HR-IXPWINDi_r2_v1.2.,2013-02-10 04:05:00,
2013-02-09 23:10:00,31.9,27.6,30.35,NNE,18,0.0,5.0,84,0.00,,,0.00,0,HR-IXPWINDi_r2_v1.2.,2013-02-10 04:10:00,
2013-02-09 23:16:00,32.2,27.6,30.35,ENE,62,0.0,3.0,83,0.00,,,0.00,0,HR-IXPWINDi_r2_v1.2.,2013-02-10 04:16:00,
2013-02-09 23:21:00,31.9,27.3,30.35,East,89,0.0,3.0,83,0.00,,,0.00,0,HR-IXPWINDi_r2_v1.2.,2013-02-10 04:21:00,
2013-02-09 23:26:00,31.8,27.5,30.35,ENE,74,1.0,3.0,84,0.00,,,0.00,0,HR-IXPWINDi_r2_v1.2.,2013-02-10 04:26:00,
2013-02-09 23:31:00,31.9,27.6,30.35,East,101,0.0,4.0,84,0.00,,,0.00,0,HR-IXPWINDi_r2_v1.2.,2013-02-10 04:31:00,
2013-02-09 23:36:00,32.1,27.8,30.35,ENE,69,0.0,4.0,84,0.00,,,0.00,0,HR-IXPWINDi_r2_v1.2.,2013-02-10 04:36:00,
2013-02-09 23:41:00,32.3,28.0,30.35,NW,325,4.0,4.0,84,0.00,,,0.00,0,HR-IXPWINDi_r2_v1.2.,2013-02-10 04:41:00,
2013-02-09 23:46:00,32.1,27.5,30.35,WNW,302,2.0,4.0,83,0.00,,,0.00,0,HR-IXPWINDi_r2_v1.2.,2013-02-10 04:46:00,
2013-02-09 23:51:00,32.1,27.8,30.35,NW,314,0.0,4.0,84,0.00,,,0.00,0,HR-IXPWINDi_r2_v1.2.,2013-02-10 04:51:00,
2013-02-09 23:56:00,32.3,28.0,30.36,NW,318,0.0,3.0,84,0.00,,,0.00,0,HR-IXPWINDi_r2_v1.2.,2013-02-10 04:56:00,